Time;durP1;ratioP1;P1;durP2;ratioP2;P2;SDS_P1;SDS_P2;PMS_P1;PMS_P2;Temp;Humidity;BMP_temperature;BMP_pressure;BME280_temperature;BME280_humidity;BME280_pressure;Samples;Min_cycle;Max_cycle;Signal;HPM_P1;HPM_P2
2023/02/05 00:00:53;;;;;;;2.17;1.40;;;-3.40;99.90;;;;;;7407785;19;20321;-87
2023/02/05 00:03:18;;;;;;;1.50;1.40;;;-3.40;99.90;;;;;;7401668;19;20322;-90
2023/02/05 00:05:44;;;;;;;2.20;1.43;;;-3.40;99.90;;;;;;7403538;19;20312;-91
2023/02/05 00:08:09;;;;;;;1.80;1.70;;;-3.40;99.90;;;;;;7404413;19;20325;-89
2023/02/05 00:10:35;;;;;;;3.78;1.90;;;-3.60;99.90;;;;;;7405144;19;20870;-91
2023/02/05 00:13:01;;;;;;;1.50;1.40;;;-3.70;99.90;;;;;;7401253;19;20334;-89
2023/02/05 00:15:26;;;;;;;2.13;1.60;;;-3.70;99.90;;;;;;7400859;19;20382;-91
2023/02/05 00:17:52;;;;;;;1.73;1.45;;;-3.80;99.90;;;;;;7402733;19;20320;-89
2023/02/05 00:20:18;;;;;;;1.90;1.70;;;-3.70;99.90;;;;;;7402378;19;20321;-92
2023/02/05 00:22:43;;;;;;;1.60;1.50;;;-3.80;99.90;;;;;;7402091;19;20503;-90
2023/02/05 00:25:13;;;;;;;1.88;1.60;;;-3.80;99.90;;;;;;7402245;19;21866;-91
2023/02/05 00:27:38;;;;;;;1.70;1.60;;;-3.80;99.90;;;;;;7402426;19;20336;-90
2023/02/05 00:30:04;;;;;;;1.53;1.43;;;-3.80;99.90;;;;;;7400443;19;20316;-85
2023/02/05 00:32:30;;;;;;;2.47;1.70;;;-3.80;99.90;;;;;;7391488;19;20326;-88
2023/02/05 00:34:56;;;;;;;1.80;1.47;;;-3.80;99.90;;;;;;7391379;19;21132;-81
2023/02/05 00:37:21;;;;;;;1.67;1.58;;;-3.80;99.90;;;;;;7385821;19;20321;-79
2023/02/05 00:39:48;;;;;;;2.03;1.63;;;-3.70;99.90;;;;;;7387582;19;20336;-80
2023/02/05 00:42:16;;;;;;;1.63;1.52;;;-3.80;99.90;;;;;;7387896;19;20304;-86
2023/02/05 00:44:41;;;;;;;1.70;1.60;;;-3.80;99.90;;;;;;7393913;19;20649;-87
2023/02/05 00:47:13;;;;;;;2.08;1.48;;;-3.90;99.90;;;;;;7392975;19;20340;-86
2023/02/05 00:49:39;;;;;;;1.55;1.40;;;-3.90;99.90;;;;;;7394175;19;20333;-85
2023/02/05 00:52:06;;;;;;;1.58;1.48;;;-3.90;99.90;;;;;;7394352;19;20313;-91
2023/02/05 00:54:31;;;;;;;1.90;1.60;;;-3.90;99.90;;;;;;7391148;19;20316;-90
2023/02/05 00:56:57;;;;;;;1.63;1.53;;;-4.00;99.90;;;;;;7392152;19;20885;-86
2023/02/05 00:59:22;;;;;;;1.75;1.60;;;-4.00;99.90;;;;;;7394225;19;20345;-84
2023/02/05 01:01:48;;;;;;;1.83;1.43;;;-4.00;99.90;;;;;;7394359;19;20326;-88
2023/02/05 01:04:16;;;;;;;2.75;1.60;;;-4.00;99.90;;;;;;7391657;19;20321;-91
2023/02/05 01:06:42;;;;;;;2.92;1.98;;;-4.10;99.90;;;;;;7392923;19;20814;-87
2023/02/05 01:09:08;;;;;;;1.80;1.70;;;-4.10;99.90;;;;;;7394334;19;20320;-91
2023/02/05 01:11:34;;;;;;;1.73;1.63;;;-4.10;99.90;;;;;;7391711;19;20324;-93
2023/02/05 01:13:59;;;;;;;1.70;1.60;;;-4.10;99.90;;;;;;7394047;19;20410;-87
2023/02/05 01:16:27;;;;;;;1.80;1.60;;;-4.10;99.90;;;;;;7393877;19;20305;-84
2023/02/05 01:18:55;;;;;;;3.92;1.90;;;-4.00;99.90;;;;;;7394168;19;20329;-81
2023/02/05 01:21:23;;;;;;;1.60;1.50;;;-4.10;99.90;;;;;;7392802;19;20305;-87
2023/02/05 01:23:50;;;;;;;2.08;1.70;;;-4.10;99.90;;;;;;7391340;19;20315;-90
2023/02/05 01:26:16;;;;;;;1.58;1.48;;;-4.10;99.90;;;;;;7393262;19;20357;-89
2023/02/05 01:28:44;;;;;;;1.60;1.50;;;-4.20;99.90;;;;;;7392282;19;20356;-83
2023/02/05 01:31:09;;;;;;;3.00;1.60;;;-4.30;99.90;;;;;;7391587;19;20312;-91
2023/02/05 01:33:41;;;;;;;2.53;1.30;;;-4.30;99.90;;;;;;7391068;19;20323;-84
2023/02/05 01:36:06;;;;;;;1.70;1.60;;;-4.20;99.90;;;;;;7390837;19;20320;-90
2023/02/05 01:38:32;;;;;;;1.30;1.30;;;-4.30;99.90;;;;;;7392495;19;20333;-89
2023/02/05 01:40:58;;;;;;;1.77;1.50;;;-4.40;99.90;;;;;;7392572;19;20313;-88
2023/02/05 01:43:24;;;;;;;1.50;1.40;;;-4.40;99.90;;;;;;7393341;19;20333;-89
2023/02/05 01:46:05;;;;;;;2.80;1.98;;;-4.30;99.90;;;;;;7392270;19;20318;-86
2023/02/05 01:48:37;;;;;;;1.50;1.40;;;-4.30;99.90;;;;;;7391700;19;20309;-90
2023/02/05 01:51:05;;;;;;;1.70;1.60;;;-4.40;99.90;;;;;;7393393;19;20307;-85
2023/02/05 01:53:32;;;;;;;1.42;1.33;;;-4.40;99.90;;;;;;7389831;19;20312;-84
2023/02/05 01:56:04;;;;;;;1.42;1.33;;;-4.40;99.90;;;;;;7393177;19;20312;-89
2023/02/05 01:58:32;;;;;;;1.50;1.40;;;-4.40;99.90;;;;;;7391931;19;20345;-90
2023/02/05 02:00:58;;;;;;;1.13;1.13;;;-4.40;99.90;;;;;;7392635;19;20317;-89
2023/02/05 02:03:24;;;;;;;1.40;1.30;;;-4.40;99.90;;;;;;7391325;19;20347;-87
2023/02/05 02:05:57;;;;;;;1.38;1.27;;;-4.40;99.90;;;;;;7391487;19;20313;-87
2023/02/05 02:08:23;;;;;;;1.50;1.40;;;-4.50;99.90;;;;;;7392145;19;21285;-89
2023/02/05 02:10:49;;;;;;;1.47;1.30;;;-4.60;99.90;;;;;;7396225;19;20312;-89
2023/02/05 02:13:14;;;;;;;1.42;1.33;;;-4.60;99.90;;;;;;7393242;19;20304;-93
2023/02/05 02:15:40;;;;;;;1.80;1.67;;;-4.70;99.90;;;;;;7393575;19;20312;-81
2023/02/05 02:21:11;;;;;;;1.73;1.63;;;-4.80;99.90;;;;;;7292201;19;2004250;-83
2023/02/05 02:23:39;;;;;;;2.05;1.90;;;-4.80;99.90;;;;;;7397699;19;20347;-88
2023/02/05 02:26:04;;;;;;;2.00;1.40;;;-4.80;99.90;;;;;;7393243;19;20319;-89
2023/02/05 02:28:35;;;;;;;1.50;1.40;;;-4.80;99.90;;;;;;7392827;19;20392;-93
2023/02/05 02:31:05;;;;;;;1.58;1.48;;;-4.70;99.90;;;;;;7389349;19;20320;-89
2023/02/05 02:33:33;;;;;;;2.25;1.80;;;-4.80;99.90;;;;;;7368427;19;21178;-85
2023/02/05 02:36:17;;;;;;;1.67;1.50;;;-4.80;99.90;;;;;;7397138;19;20308;-89
2023/02/05 02:38:49;;;;;;;2.05;1.90;;;-4.70;99.90;;;;;;7396526;19;20332;-87
2023/02/05 02:41:23;;;;;;;2.75;1.60;;;-4.70;99.90;;;;;;7393889;19;20304;-93
2023/02/05 02:43:58;;;;;;;2.30;1.80;;;-4.80;99.90;;;;;;7289645;19;2004264;-87
2023/02/05 02:46:28;;;;;;;2.20;1.75;;;-4.70;99.90;;;;;;7393987;19;20316;-88
2023/02/05 02:48:54;;;;;;;2.17;1.90;;;-4.80;99.90;;;;;;7394918;19;20321;-85
2023/02/05 02:51:20;;;;;;;3.10;1.90;;;-4.70;99.90;;;;;;7396087;19;20388;-82
2023/02/05 02:53:48;;;;;;;2.93;1.83;;;-4.70;99.90;;;;;;7394966;19;20669;-87
2023/02/05 02:56:14;;;;;;;2.70;1.90;;;-4.70;99.90;;;;;;7392801;19;20324;-89
2023/02/05 02:58:46;;;;;;;2.13;1.75;;;-4.80;99.90;;;;;;7394234;19;20332;-86
2023/02/05 03:01:12;;;;;;;1.90;1.63;;;-4.90;99.90;;;;;;7393707;19;20704;-90
2023/02/05 03:03:41;;;;;;;2.20;1.67;;;-4.80;99.90;;;;;;7393876;19;20345;-87
2023/02/05 03:06:06;;;;;;;1.70;1.60;;;-4.80;99.90;;;;;;7394787;19;20329;-84
2023/02/05 03:08:40;;;;;;;2.20;1.80;;;-4.80;99.90;;;;;;7394710;19;20323;-83
2023/02/05 03:11:11;;;;;;;2.28;1.70;;;-4.90;99.90;;;;;;7395456;19;20313;-89
2023/02/05 03:13:37;;;;;;;2.42;2.05;;;-4.90;99.90;;;;;;7395843;19;20328;-82
2023/02/05 03:16:04;;;;;;;2.90;2.33;;;-5.00;99.90;;;;;;7393033;19;20336;-91
2023/02/05 03:18:31;;;;;;;4.72;2.50;;;-5.00;99.90;;;;;;7401538;19;20328;-86
2023/02/05 03:20:59;;;;;;;3.10;2.38;;;-5.00;99.90;;;;;;7403062;19;20339;-88
2023/02/05 03:23:27;;;;;;;3.00;2.15;;;-5.00;99.90;;;;;;7404322;19;20297;-88
2023/02/05 03:25:54;;;;;;;4.32;2.53;;;-5.10;99.90;;;;;;7403933;19;21154;-87
2023/02/05 03:28:26;;;;;;;3.97;2.55;;;-5.10;99.90;;;;;;7404817;19;20372;-81
2023/02/05 03:31:07;;;;;;;3.88;2.60;;;-5.10;99.90;;;;;;7403630;19;20842;-88
2023/02/05 03:33:45;;;;;;;4.15;2.70;;;-5.10;99.90;;;;;;7406418;19;21230;-89
2023/02/05 03:36:19;;;;;;;4.20;2.55;;;-5.10;99.90;;;;;;7406129;19;20420;-86
2023/02/05 03:39:06;;;;;;;3.90;2.58;;;-5.10;99.90;;;;;;7409269;19;20317;-84
2023/02/05 03:41:56;;;;;;;2.53;2.25;;;-5.10;99.90;;;;;;7303650;19;2004678;-87
2023/02/05 03:44:27;;;;;;;3.92;2.38;;;-5.10;99.90;;;;;;7304983;19;2004218;-89
2023/02/05 03:46:57;;;;;;;3.13;2.45;;;-5.10;99.90;;;;;;7407382;19;20881;-84
2023/02/05 03:49:38;;;;;;;3.50;2.30;;;-5.10;99.90;;;;;;7407072;19;20315;-88
2023/02/05 03:52:09;;;;;;;3.88;2.50;;;-5.10;99.90;;;;;;7407962;19;20404;-88
2023/02/05 03:55:17;;;;;;;4.03;2.45;;;-5.10;99.90;;;;;;7405532;19;20336;-94
2023/02/05 03:57:52;;;;;;;3.60;2.60;;;-5.00;99.90;;;;;;7299811;19;2004333;-90
2023/02/05 04:00:20;;;;;;;3.05;2.33;;;-5.00;99.90;;;;;;7404573;19;20301;-88
2023/02/05 04:02:50;;;;;;;3.03;2.25;;;-5.00;99.90;;;;;;7301557;19;2004268;-86
2023/02/05 04:05:21;;;;;;;2.85;2.13;;;-5.00;99.90;;;;;;7403370;19;20313;-90
2023/02/05 04:07:49;;;;;;;3.55;2.10;;;-4.90;99.90;;;;;;7404118;19;20344;-88
2023/02/05 04:10:15;;;;;;;2.97;2.53;;;-4.90;99.90;;;;;;7402510;19;20308;-88
2023/02/05 04:12:41;;;;;;;3.00;2.08;;;-4.90;99.90;;;;;;7404701;19;20320;-92
2023/02/05 04:15:08;;;;;;;4.00;2.78;;;-4.80;99.90;;;;;;7402519;19;20340;-91
2023/02/05 04:17:38;;;;;;;3.35;2.50;;;-4.90;99.90;;;;;;7400760;19;20320;-90
2023/02/05 04:20:04;;;;;;;2.25;2.05;;;-4.90;99.90;;;;;;7402158;19;20308;-90
2023/02/05 04:22:30;;;;;;;3.08;2.40;;;-4.90;99.90;;;;;;7399525;19;20309;-86
2023/02/05 04:24:56;;;;;;;2.58;2.38;;;-4.90;99.90;;;;;;7401333;19;20340;-92
2023/02/05 04:27:22;;;;;;;2.58;2.35;;;-5.00;99.90;;;;;;7401802;19;20313;-91
2023/02/05 04:29:48;;;;;;;2.85;2.20;;;-5.10;99.90;;;;;;7399487;19;20371;-93
2023/02/05 04:32:14;;;;;;;3.67;2.40;;;-5.10;99.90;;;;;;7396072;19;20313;-87
2023/02/05 04:34:39;;;;;;;2.87;2.60;;;-5.10;99.90;;;;;;7398832;19;20360;-91
2023/02/05 04:37:08;;;;;;;2.80;2.27;;;-5.10;99.90;;;;;;7399147;19;20426;-91
2023/02/05 04:39:33;;;;;;;3.40;2.28;;;-5.00;99.90;;;;;;7398616;19;20342;-89
2023/02/05 04:42:00;;;;;;;2.80;2.20;;;-5.00;99.90;;;;;;7396664;19;20297;-95
2023/02/05 04:44:26;;;;;;;2.15;1.92;;;-5.00;99.90;;;;;;7397119;19;20333;-82
2023/02/05 04:46:53;;;;;;;1.95;1.75;;;-5.10;99.90;;;;;;7397668;19;20341;-92
2023/02/05 04:49:19;;;;;;;2.47;2.05;;;-5.00;99.90;;;;;;7402842;19;20319;-85
2023/02/05 04:51:44;;;;;;;2.25;2.03;;;-5.10;99.90;;;;;;7395662;19;20942;-86
2023/02/05 04:54:10;;;;;;;2.77;2.30;;;-5.10;99.90;;;;;;7395762;19;20313;-83
2023/02/05 04:56:35;;;;;;;2.00;1.90;;;-5.10;99.90;;;;;;7395246;19;20362;-88
2023/02/05 04:59:01;;;;;;;2.22;1.83;;;-5.10;99.90;;;;;;7394765;19;20377;-87
2023/02/05 05:01:28;;;;;;;2.83;2.17;;;-5.10;99.90;;;;;;7395670;19;20311;-88
2023/02/05 05:03:53;;;;;;;3.22;2.00;;;-5.10;99.90;;;;;;7396322;19;20305;-88
2023/02/05 05:06:19;;;;;;;2.60;2.03;;;-5.00;99.90;;;;;;7398209;19;20304;-84
2023/02/05 05:08:45;;;;;;;3.57;2.20;;;-5.10;99.90;;;;;;7398209;19;20313;-88
2023/02/05 05:11:18;;;;;;;2.28;2.08;;;-5.20;99.90;;;;;;7395658;19;20335;-83
2023/02/05 05:13:44;;;;;;;2.45;2.22;;;-5.20;99.90;;;;;;7396687;19;20320;-91
2023/02/05 05:16:10;;;;;;;2.42;2.05;;;-5.30;99.90;;;;;;7397921;19;20321;-92
2023/02/05 05:18:36;;;;;;;1.90;1.70;;;-5.30;99.90;;;;;;7398845;19;20395;-85
2023/02/05 05:21:01;;;;;;;2.15;1.95;;;-5.20;99.90;;;;;;7396173;19;20309;-88
2023/02/05 05:23:27;;;;;;;2.70;2.00;;;-5.20;99.90;;;;;;7397720;19;20323;-91
2023/02/05 05:25:53;;;;;;;3.60;2.00;;;-5.10;99.90;;;;;;7396435;19;20321;-89
2023/02/05 05:28:18;;;;;;;2.88;2.10;;;-5.20;99.90;;;;;;7396370;19;20297;-86
2023/02/05 05:30:44;;;;;;;1.87;1.70;;;-5.20;99.90;;;;;;7394918;19;20359;-91
2023/02/05 05:33:10;;;;;;;2.57;2.37;;;-5.30;99.90;;;;;;7395454;19;20686;-87
2023/02/05 05:35:36;;;;;;;3.17;2.08;;;-5.30;99.90;;;;;;7393694;19;20329;-85
2023/02/05 05:38:02;;;;;;;2.53;2.03;;;-5.30;99.90;;;;;;7394701;19;20909;-90
2023/02/05 05:46:00;;;;;;;2.88;2.22;;;-5.40;99.90;;;;;;7291765;19;2004430;-85
2023/02/05 05:48:26;;;;;;;3.07;2.10;;;-5.40;99.90;;;;;;7392230;19;20304;-85
2023/02/05 05:50:52;;;;;;;2.58;2.22;;;-5.40;99.90;;;;;;7391935;19;20331;-87
2023/02/05 05:53:18;;;;;;;2.50;2.30;;;-5.50;99.90;;;;;;7390993;19;20328;-85
2023/02/05 05:55:43;;;;;;;2.20;2.00;;;-5.40;99.90;;;;;;7392642;19;20613;-88
2023/02/05 05:58:09;;;;;;;2.60;2.10;;;-5.40;99.90;;;;;;7391114;19;20317;-85
2023/02/05 06:00:36;;;;;;;3.15;2.28;;;-5.50;99.90;;;;;;7387637;19;20326;-83
2023/02/05 06:03:01;;;;;;;2.67;2.40;;;-5.40;99.90;;;;;;7388587;19;20425;-90
2023/02/05 06:05:27;;;;;;;2.47;1.90;;;-5.50;99.90;;;;;;7386518;19;20308;-86
2023/02/05 06:07:52;;;;;;;2.03;1.80;;;-5.50;99.90;;;;;;7386264;19;20321;-83
2023/02/05 06:10:19;;;;;;;2.08;1.88;;;-5.50;99.90;;;;;;7389093;19;20317;-83
2023/02/05 06:12:45;;;;;;;2.30;2.10;;;-5.50;99.90;;;;;;7389038;19;20324;-88
2023/02/05 06:15:10;;;;;;;2.20;2.00;;;-5.50;99.90;;;;;;7387812;19;20317;-90
2023/02/05 06:17:36;;;;;;;2.55;2.17;;;-5.50;99.90;;;;;;7389209;19;20329;-85
2023/02/05 06:20:02;;;;;;;3.38;2.03;;;-5.50;99.90;;;;;;7388706;19;20368;-84
2023/02/05 06:22:28;;;;;;;2.58;1.90;;;-5.60;99.90;;;;;;7387960;19;20316;-83
2023/02/05 06:24:53;;;;;;;2.13;1.93;;;-5.50;99.90;;;;;;7388806;19;20676;-86
2023/02/05 06:27:19;;;;;;;2.30;2.10;;;-5.60;99.90;;;;;;7389974;19;20301;-82
2023/02/05 06:29:45;;;;;;;2.55;1.85;;;-5.60;99.90;;;;;;7398358;19;20302;-92
2023/02/05 06:32:10;;;;;;;2.67;1.95;;;-5.60;99.90;;;;;;7395355;19;20315;-80
2023/02/05 06:34:36;;;;;;;2.57;2.37;;;-5.80;99.90;;;;;;7403169;19;20334;-91
2023/02/05 06:37:02;;;;;;;2.30;1.98;;;-5.80;99.90;;;;;;7393123;19;20309;-87
2023/02/05 06:39:29;;;;;;;3.15;2.10;;;-5.70;99.90;;;;;;7387970;19;20323;-85
2023/02/05 06:41:54;;;;;;;2.30;2.10;;;-5.70;99.90;;;;;;7387416;19;20308;-83
2023/02/05 06:44:20;;;;;;;2.10;1.83;;;-5.70;99.90;;;;;;7389522;19;20340;-87
2023/02/05 06:46:45;;;;;;;2.92;2.10;;;-5.70;99.90;;;;;;7389304;19;20309;-81
2023/02/05 06:49:11;;;;;;;3.10;2.20;;;-5.60;99.90;;;;;;7386867;19;20323;-82
2023/02/05 06:51:37;;;;;;;2.90;2.30;;;-5.60;99.90;;;;;;7385745;19;20681;-82
2023/02/05 06:54:03;;;;;;;2.80;1.80;;;-5.60;99.90;;;;;;7393873;19;20849;-85
2023/02/05 06:56:28;;;;;;;3.00;2.50;;;-5.50;99.90;;;;;;7395618;19;20909;-86
2023/02/05 06:58:54;;;;;;;3.50;2.50;;;-5.60;99.90;;;;;;7392664;19;20300;-81
2023/02/05 07:01:21;;;;;;;2.30;1.90;;;-5.70;99.90;;;;;;7395868;19;20320;-84
2023/02/05 07:03:47;;;;;;;2.35;2.05;;;-5.70;99.90;;;;;;7395806;19;20355;-84
2023/02/05 07:06:13;;;;;;;2.90;2.35;;;-5.70;99.90;;;;;;7392347;19;20319;-90
2023/02/05 07:08:39;;;;;;;3.97;2.57;;;-5.70;99.90;;;;;;7394619;19;20683;-86
2023/02/05 07:11:04;;;;;;;2.33;2.10;;;-5.60;99.90;;;;;;7393248;19;20330;-88
2023/02/05 07:13:30;;;;;;;2.67;2.30;;;-5.50;99.90;;;;;;7394223;19;20395;-84
2023/02/05 07:15:56;;;;;;;4.38;2.63;;;-5.50;99.90;;;;;;7395033;19;20329;-81
2023/02/05 07:18:23;;;;;;;3.42;2.33;;;-5.40;99.90;;;;;;7393808;19;20333;-81
2023/02/05 07:20:48;;;;;;;2.70;2.17;;;-5.20;99.90;;;;;;7395783;19;20834;-88
2023/02/05 07:23:14;;;;;;;2.63;2.10;;;-5.30;99.90;;;;;;7393263;19;20313;-88
2023/02/05 07:25:40;;;;;;;2.70;2.50;;;-5.10;99.90;;;;;;7392647;19;20339;-85
2023/02/05 07:28:06;;;;;;;4.50;2.88;;;-5.20;99.90;;;;;;7395290;19;20769;-85
2023/02/05 07:30:33;;;;;;;5.38;3.20;;;-5.10;99.90;;;;;;7394396;19;20332;-89
2023/02/05 07:33:00;;;;;;;5.68;2.50;;;-5.00;99.90;;;;;;7390035;19;20360;-79
2023/02/05 07:35:25;;;;;;;2.30;2.10;;;-4.90;99.90;;;;;;7384489;19;20312;-82
2023/02/05 07:37:51;;;;;;;2.50;2.30;;;-4.90;99.90;;;;;;7381848;19;20433;-81
2023/02/05 07:40:17;;;;;;;2.67;2.20;;;-4.80;99.90;;;;;;7397227;19;20371;-83
2023/02/05 07:42:42;;;;;;;3.30;2.53;;;-4.60;99.90;;;;;;7395057;19;20642;-87
2023/02/05 07:45:10;;;;;;;4.40;2.65;;;-4.40;99.90;;;;;;7396327;19;20337;-86
2023/02/05 07:47:36;;;;;;;3.70;2.92;;;-4.30;99.90;;;;;;7395885;19;20332;-85
2023/02/05 07:50:03;;;;;;;4.13;3.10;;;-4.10;99.90;;;;;;7394818;19;20308;-81
2023/02/05 07:52:29;;;;;;;4.53;3.80;;;-3.90;99.90;;;;;;7394960;19;20346;-85
2023/02/05 07:54:55;;;;;;;3.63;3.33;;;-3.80;99.90;;;;;;7394469;19;21084;-83
2023/02/05 07:57:21;;;;;;;6.15;4.25;;;-3.80;99.90;;;;;;7394214;19;20331;-87
2023/02/05 07:59:47;;;;;;;4.83;3.60;;;-3.70;99.90;;;;;;7397563;19;20812;-83
2023/02/05 08:02:12;;;;;;;3.13;2.80;;;-3.60;99.90;;;;;;7395444;19;20317;-89
2023/02/05 08:04:38;;;;;;;3.92;2.78;;;-3.50;99.90;;;;;;7390103;19;20312;-83
2023/02/05 08:07:04;;;;;;;5.67;2.80;;;-3.40;99.90;;;;;;7388490;19;20328;-83
2023/02/05 08:09:29;;;;;;;3.72;2.80;;;-3.40;99.90;;;;;;7387526;19;20439;-85
2023/02/05 08:11:55;;;;;;;4.03;3.05;;;-3.30;99.90;;;;;;7385173;19;20340;-80
2023/02/05 08:14:21;;;;;;;5.37;3.83;;;-3.30;99.90;;;;;;7383230;19;20800;-84
2023/02/05 08:16:46;;;;;;;3.55;2.72;;;-3.20;99.90;;;;;;7391251;19;20332;-84
2023/02/05 08:19:19;;;;;;;2.50;2.30;;;-3.20;99.90;;;;;;7387345;19;20343;-81
2023/02/05 08:21:44;;;;;;;2.47;2.28;;;-3.10;99.90;;;;;;7383903;19;20312;-83
2023/02/05 08:24:10;;;;;;;2.37;2.10;;;-3.00;99.90;;;;;;7377736;19;20324;-77
2023/02/05 08:26:35;;;;;;;2.67;2.30;;;-3.00;99.90;;;;;;7382430;19;21143;-78
2023/02/05 08:29:01;;;;;;;1.95;1.80;;;-3.00;99.90;;;;;;7381092;19;20858;-82
2023/02/05 08:31:27;;;;;;;4.35;1.92;;;-2.90;99.90;;;;;;7381266;19;20380;-78
2023/02/05 08:33:53;;;;;;;3.67;2.17;;;-2.80;99.90;;;;;;7383094;19;20380;-80
2023/02/05 08:36:19;;;;;;;2.40;2.00;;;-2.60;99.90;;;;;;7384114;19;20854;-83
2023/02/05 08:38:45;;;;;;;3.78;2.35;;;-2.50;99.90;;;;;;7382491;19;20379;-80
2023/02/05 08:41:11;;;;;;;2.20;1.80;;;-2.50;99.90;;;;;;7385303;19;20341;-80
2023/02/05 08:43:42;;;;;;;2.08;1.88;;;-2.40;99.90;;;;;;7384633;19;20329;-83
2023/02/05 08:46:08;;;;;;;4.50;2.15;;;-2.30;99.90;;;;;;7387251;19;20312;-83
2023/02/05 08:48:34;;;;;;;2.95;2.60;;;-2.20;99.90;;;;;;7390030;19;20392;-80
2023/02/05 08:50:59;;;;;;;2.80;2.30;;;-2.10;99.90;;;;;;7387439;19;20308;-82
2023/02/05 08:53:26;;;;;;;4.03;2.63;;;-2.00;99.90;;;;;;7391186;19;20304;-84
2023/02/05 08:55:56;;;;;;;2.97;2.20;;;-2.00;99.90;;;;;;7390134;19;20331;-85
2023/02/05 08:58:22;;;;;;;2.25;2.05;;;-1.90;99.90;;;;;;7386833;19;20332;-78
2023/02/05 09:00:50;;;;;;;3.50;1.90;;;-1.80;99.90;;;;;;7386500;19;20872;-81
2023/02/05 09:03:15;;;;;;;2.22;2.03;;;-1.70;99.90;;;;;;7385824;19;20553;-79
2023/02/05 09:05:41;;;;;;;2.08;1.88;;;-1.60;99.90;;;;;;7389793;19;20929;-82
2023/02/05 09:08:07;;;;;;;2.00;1.80;;;-1.50;99.90;;;;;;7387136;19;20301;-86
2023/02/05 09:10:32;;;;;;;2.83;2.20;;;-1.40;99.90;;;;;;7387588;19;20416;-84
2023/02/05 09:12:58;;;;;;;2.37;2.17;;;-1.30;99.90;;;;;;7386147;19;20681;-79
2023/02/05 09:15:24;;;;;;;2.23;1.97;;;-1.30;99.90;;;;;;7389540;19;20324;-79
2023/02/05 09:17:50;;;;;;;2.00;1.83;;;-1.20;99.90;;;;;;7387583;19;20301;-84
2023/02/05 09:20:16;;;;;;;25.07;14.13;;;-1.20;99.90;;;;;;7387469;19;20706;-80
2023/02/05 09:22:43;;;;;;;23.23;15.40;;;-1.20;99.90;;;;;;7385084;19;20684;-78
2023/02/05 09:25:09;;;;;;;4.13;3.58;;;-1.20;99.90;;;;;;7386548;19;20308;-78
2023/02/05 09:27:34;;;;;;;4.32;3.00;;;-1.10;99.90;;;;;;7390099;19;20355;-81
2023/02/05 09:30:00;;;;;;;3.37;2.87;;;-1.00;99.90;;;;;;7389612;19;20321;-79
2023/02/05 09:32:26;;;;;;;5.00;3.50;;;-0.80;99.90;;;;;;7383184;19;20399;-81
2023/02/05 09:35:02;;;;;;;8.82;5.75;;;-0.80;99.90;;;;;;7283058;19;2004646;-91
2023/02/05 09:38:17;;;;;;;3.55;3.22;;;-0.70;99.90;;;;;;7280667;19;2004357;-94
2023/02/05 10:37:58;;;;;;;5.75;2.42;;;0.30;99.90;;;;;;7416791;19;20368;-87
2023/02/05 10:40:33;;;;;;;3.10;2.73;;;0.50;99.90;;;;;;7157657;19;2004473;-88
2023/02/05 10:43:16;;;;;;;5.30;2.93;;;0.50;99.90;;;;;;7383494;19;20339;-88
2023/02/05 10:45:44;;;;;;;2.63;2.42;;;0.40;99.90;;;;;;7402693;19;20342;-91
2023/02/05 10:48:42;;;;;;;3.13;2.78;;;0.50;99.90;;;;;;7389645;19;20343;-88
2023/02/05 14:44:21;;;;;;;4.28;3.00;;;2.10;99.90;;;;;;7376023;19;20333;-92
2023/02/05 14:47:07;;;;;;;4.57;3.40;;;2.10;99.90;;;;;;7291427;19;2004112;-90
2023/02/05 14:49:32;;;;;;;5.03;3.75;;;2.20;99.90;;;;;;7296266;19;2004379;-90
2023/02/05 14:52:06;;;;;;;4.73;4.07;;;2.10;99.90;;;;;;7407478;19;20805;-91
2023/02/05 14:54:58;;;;;;;5.25;3.55;;;2.00;99.90;;;;;;7411363;19;20417;-91
2023/02/05 14:57:38;;;;;;;3.97;3.58;;;2.00;99.90;;;;;;7305489;19;2004211;-88
2023/02/05 15:00:06;;;;;;;5.15;4.35;;;2.10;99.90;;;;;;7411120;19;20320;-90
2023/02/05 15:03:09;;;;;;;5.50;4.60;;;2.10;99.90;;;;;;7407074;19;20325;-87
2023/02/05 15:05:44;;;;;;;7.40;5.37;;;2.00;99.90;;;;;;7305889;19;2003972;-90
2023/02/05 15:08:12;;;;;;;5.73;4.63;;;1.90;99.90;;;;;;7410482;19;20337;-87
2023/02/05 15:10:53;;;;;;;5.38;4.60;;;1.70;99.90;;;;;;7411448;19;20404;-88
2023/02/05 15:13:19;;;;;;;7.30;5.07;;;1.70;99.90;;;;;;7411093;19;20313;-88
2023/02/05 15:16:10;;;;;;;6.82;4.90;;;1.60;99.90;;;;;;7415548;19;20322;-90
2023/02/05 15:18:57;;;;;;;6.75;4.75;;;1.50;99.90;;;;;;7316010;19;2004158;-89
2023/02/05 15:21:30;;;;;;;6.55;4.47;;;1.40;99.90;;;;;;7314263;19;2004226;-87
2023/02/05 15:24:11;;;;;;;6.38;5.35;;;1.40;99.90;;;;;;7418324;19;20355;-88
2023/02/05 15:26:58;;;;;;;7.55;5.30;;;1.40;99.90;;;;;;7417147;19;20364;-87
2023/02/05 15:29:30;;;;;;;5.50;4.63;;;1.10;99.90;;;;;;7314393;19;2004010;-88
2023/02/05 15:32:14;;;;;;;6.75;4.63;;;1.10;99.90;;;;;;7416638;19;20335;-87
2023/02/05 15:34:46;;;;;;;6.03;4.85;;;1.10;99.90;;;;;;7418392;19;20312;-87
2023/02/05 15:37:42;;;;;;;7.80;5.13;;;0.80;99.90;;;;;;7374041;19;20326;-87
2023/02/05 15:40:25;;;;;;;7.90;5.17;;;0.70;99.90;;;;;;7313939;19;2004074;-88
2023/02/05 15:42:57;;;;;;;5.45;4.70;;;0.70;99.90;;;;;;7418185;19;20308;-87
2023/02/05 15:45:27;;;;;;;7.37;5.40;;;0.60;99.90;;;;;;7311715;19;2004225;-88
2023/02/05 15:47:59;;;;;;;7.28;4.28;;;0.50;99.90;;;;;;7415094;19;20305;-87
2023/02/05 15:50:26;;;;;;;6.32;4.68;;;0.50;99.90;;;;;;7417336;19;20384;-88
2023/02/05 15:52:51;;;;;;;6.32;4.60;;;0.50;99.90;;;;;;7418147;19;20309;-87
2023/02/05 15:55:19;;;;;;;5.50;4.27;;;0.40;99.90;;;;;;7413817;19;20339;-92
2023/02/05 15:57:45;;;;;;;7.45;4.15;;;0.40;99.90;;;;;;7416150;19;20301;-88
2023/02/05 16:00:21;;;;;;;5.60;4.03;;;0.30;99.90;;;;;;7416798;19;20337;-86
2023/02/05 16:02:57;;;;;;;4.90;4.00;;;0.20;99.90;;;;;;7418026;19;20325;-89
2023/02/05 16:05:31;;;;;;;5.88;4.15;;;0.30;99.90;;;;;;7314596;19;2004123;-88
2023/02/05 16:08:00;;;;;;;6.05;4.07;;;0.30;99.90;;;;;;7417165;19;20340;-86
2023/02/05 16:10:27;;;;;;;6.18;4.18;;;0.40;99.90;;;;;;7418095;19;20357;-87
2023/02/05 16:12:57;;;;;;;6.63;3.90;;;0.40;99.90;;;;;;7417577;19;20309;-88
2023/02/05 16:15:23;;;;;;;6.38;3.65;;;0.40;99.90;;;;;;7417431;19;20363;-87
2023/02/05 16:17:49;;;;;;;5.13;3.33;;;0.40;99.90;;;;;;7417149;19;20309;-86
2023/02/05 16:20:22;;;;;;;5.03;3.85;;;0.20;99.90;;;;;;7413482;19;20297;-87
2023/02/05 16:22:54;;;;;;;5.65;3.67;;;0.20;99.90;;;;;;7415784;19;20377;-86
2023/02/05 16:25:28;;;;;;;7.40;4.10;;;0.00;99.90;;;;;;7416979;19;20336;-86
2023/02/05 16:27:53;;;;;;;5.72;4.45;;;0.10;99.90;;;;;;7312769;19;2004112;-85
2023/02/05 16:30:33;;;;;;;7.43;5.10;;;0.10;99.90;;;;;;7416086;19;20344;-88
2023/02/05 16:33:00;;;;;;;7.07;4.65;;;0.10;99.90;;;;;;7312356;19;2003987;-88
2023/02/05 16:35:31;;;;;;;6.95;4.57;;;0.10;99.90;;;;;;7416487;19;20344;-88
2023/02/05 16:37:57;;;;;;;6.45;4.30;;;0.00;99.90;;;;;;7417445;19;20321;-87
2023/02/05 16:40:34;;;;;;;6.27;4.43;;;-0.10;99.90;;;;;;7417057;19;20335;-88
2023/02/05 16:43:19;;;;;;;6.00;3.70;;;-0.10;99.90;;;;;;7417665;19;20317;-87
2023/02/05 16:46:08;;;;;;;5.25;4.15;;;-0.30;99.90;;;;;;7415654;19;20293;-88
2023/02/05 16:48:37;;;;;;;5.15;4.00;;;-0.50;99.90;;;;;;7313839;19;2004050;-85
2023/02/05 16:51:04;;;;;;;4.85;3.92;;;-0.60;99.90;;;;;;7415166;19;20333;-87
2023/02/05 16:53:32;;;;;;;4.40;3.60;;;-0.60;99.90;;;;;;7416681;19;20396;-89
2023/02/05 17:02:56;;;;;;;4.40;4.00;;;-0.70;99.90;;;;;;7415105;19;20340;-92
2023/02/05 17:05:44;;;;;;;5.07;3.90;;;-0.80;99.90;;;;;;7174207;19;2004403;-81
2023/02/05 17:08:36;;;;;;;5.47;4.07;;;-0.70;99.90;;;;;;7407389;19;20359;-88
2023/02/05 17:12:02;;;;;;;7.17;4.07;;;-0.80;99.90;;;;;;7307034;19;2004331;-87
2023/02/05 17:16:10;;;;;;;4.53;3.47;;;-0.90;99.90;;;;;;7392696;19;20335;-87
2023/02/05 17:18:58;;;;;;;5.40;3.90;;;-0.90;99.90;;;;;;7232791;19;2004484;-81
2023/02/05 17:21:25;;;;;;;5.90;3.67;;;-0.90;99.90;;;;;;7296621;19;2004274;-87
2023/02/05 17:23:51;;;;;;;4.60;3.93;;;-0.80;99.90;;;;;;7403145;19;20328;-86
2023/02/05 17:26:19;;;;;;;5.20;3.60;;;-1.00;99.90;;;;;;7398985;19;20336;-88
2023/02/05 17:28:55;;;;;;;4.53;3.70;;;-1.10;99.90;;;;;;7399227;19;20381;-85
2023/02/05 17:31:25;;;;;;;3.78;3.42;;;-1.10;99.90;;;;;;7398502;19;20374;-84
2023/02/05 17:33:52;;;;;;;4.55;3.58;;;-1.20;99.90;;;;;;7399707;19;20317;-87
2023/02/05 17:36:17;;;;;;;7.35;3.85;;;-1.20;99.90;;;;;;7397804;19;20324;-81
2023/02/05 17:38:45;;;;;;;5.75;3.80;;;-1.30;99.90;;;;;;7400571;19;20360;-88
2023/02/05 17:44:12;;;;;;;5.38;4.38;;;-1.50;99.90;;;;;;7314258;19;2004068;-86
